createdAt,value
2022-07-26T00:00:12.423Z,24.56
2022-07-26T00:02:47.410Z,24.37
2022-07-26T00:05:18.635Z,24.22
2022-07-26T00:07:47.012Z,24.74
2022-07-26T00:10:15.311Z,24.59
2022-07-26T00:12:42.577Z,24.52
2022-07-26T00:15:11.797Z,24.65
2022-07-26T00:17:41.054Z,24.79
2022-07-26T00:20:09.225Z,24.54
2022-07-26T00:22:36.556Z,24.63
2022-07-26T00:25:09.334Z,24.54
2022-07-26T00:27:37.457Z,24.42
2022-07-26T00:30:10.099Z,24.36
2022-07-26T00:32:38.059Z,24.62
2022-07-26T00:35:06.715Z,24.74
2022-07-26T00:37:34.467Z,24.69
2022-07-26T00:40:01.844Z,24.95
2022-07-26T00:42:29.342Z,25.19
2022-07-26T00:44:56.846Z,25.27
2022-07-26T00:47:24.130Z,25.31
2022-07-26T00:49:51.662Z,25.45
2022-07-26T00:52:18.889Z,25.28
2022-07-26T00:54:47.126Z,25.20
2022-07-26T00:57:15.365Z,24.75
2022-07-26T00:59:43.605Z,24.42
2022-07-26T01:02:11.208Z,24.60
2022-07-26T01:04:40.165Z,24.45
2022-07-26T01:07:14.795Z,24.23
2022-07-26T01:09:43.226Z,24.24
2022-07-26T01:12:11.156Z,23.95
2022-07-26T01:14:38.426Z,24.07
2022-07-26T01:17:05.531Z,23.77
2022-07-26T01:19:32.630Z,24.01
2022-07-26T01:21:59.779Z,24.25
2022-07-26T01:24:26.898Z,24.16
2022-07-26T01:26:55.687Z,23.99
2022-07-26T01:29:23.978Z,23.92
2022-07-26T01:32:04.083Z,23.97
2022-07-26T01:34:31.239Z,24.20
2022-07-26T01:36:58.533Z,24.16
2022-07-26T01:39:25.564Z,24.53
2022-07-26T01:41:53.417Z,24.74
2022-07-26T01:44:23.339Z,24.79
2022-07-26T01:46:50.582Z,24.94
2022-07-26T01:49:17.892Z,24.65
2022-07-26T01:51:45.627Z,24.60
2022-07-26T01:54:12.890Z,24.30
2022-07-26T01:56:40.210Z,24.63
2022-07-26T01:59:07.630Z,24.75
2022-07-26T02:01:38.864Z,24.73
2022-07-26T02:04:09.307Z,24.87
2022-07-26T02:06:37.356Z,24.85
2022-07-26T02:09:06.439Z,24.76
2022-07-26T02:11:34.745Z,24.85
2022-07-26T02:14:03.314Z,24.43
2022-07-26T02:16:30.337Z,24.58
2022-07-26T02:18:57.341Z,24.87
2022-07-26T02:21:24.304Z,24.57
2022-07-26T02:23:51.274Z,25.02
2022-07-26T02:26:18.311Z,25.07
2022-07-26T02:28:45.355Z,25.08
2022-07-26T02:31:12.650Z,25.00
2022-07-26T02:33:42.962Z,24.86
2022-07-26T02:36:09.965Z,24.87
2022-07-26T02:38:37.090Z,24.78
2022-07-26T02:41:06.440Z,24.91
2022-07-26T02:43:33.531Z,24.50
2022-07-26T02:46:01.797Z,24.96
2022-07-26T02:48:31.314Z,24.98
2022-07-26T02:50:58.388Z,25.03
2022-07-26T02:53:25.363Z,24.42
2022-07-26T02:55:52.388Z,24.51
2022-07-26T02:58:21.613Z,24.66
2022-07-26T03:00:48.811Z,24.64
2022-07-26T03:03:15.931Z,24.43
2022-07-26T03:05:43.178Z,24.77
2022-07-26T03:08:10.554Z,24.59
2022-07-26T03:10:37.549Z,24.74
2022-07-26T03:13:05.249Z,24.84
2022-07-26T03:15:32.321Z,24.79
2022-07-26T03:17:59.423Z,24.64
2022-07-26T03:20:26.724Z,24.53
2022-07-26T03:22:53.735Z,24.47
2022-07-26T03:25:20.869Z,24.18
2022-07-26T03:27:47.971Z,24.15
2022-07-26T03:30:15.447Z,24.15
2022-07-26T03:32:42.677Z,24.26
2022-07-26T03:35:09.836Z,24.24
2022-07-26T03:37:44.793Z,24.27
2022-07-26T03:40:15.819Z,24.31
2022-07-26T03:42:43.316Z,24.32
2022-07-26T03:45:11.991Z,24.30
2022-07-26T03:47:39.243Z,24.46
2022-07-26T03:50:07.714Z,24.34
2022-07-26T03:52:34.867Z,24.43
2022-07-26T03:55:21.947Z,24.37
2022-07-26T03:57:49.283Z,24.41
2022-07-26T04:00:16.652Z,24.38
2022-07-26T04:02:44.149Z,24.57
2022-07-26T04:05:11.386Z,24.39
2022-07-26T04:07:52.796Z,24.44
2022-07-26T04:10:21.656Z,24.32
2022-07-26T04:12:49.582Z,24.44
2022-07-26T04:15:18.889Z,24.54
2022-07-26T04:17:45.883Z,24.53
2022-07-26T04:20:12.968Z,24.51
2022-07-26T04:22:41.315Z,24.29
2022-07-26T04:25:09.803Z,24.39
2022-07-26T04:27:38.208Z,24.58
2022-07-26T04:30:12.370Z,24.31
2022-07-26T04:32:55.804Z,23.93
2022-07-26T04:35:22.901Z,23.98
2022-07-26T04:37:50.002Z,24.03
2022-07-26T04:40:22.019Z,23.92
2022-07-26T04:42:52.487Z,23.37
2022-07-26T04:45:20.457Z,23.93
2022-07-26T04:48:02.970Z,23.83
2022-07-26T04:50:30.096Z,23.92
2022-07-26T04:52:57.296Z,23.79
2022-07-26T04:55:24.752Z,23.84
2022-07-26T04:57:51.991Z,24.27
2022-07-26T05:00:24.257Z,24.24
2022-07-26T05:02:55.468Z,24.17
2022-07-26T05:05:24.799Z,24.03
2022-07-26T05:07:57.863Z,23.98
2022-07-26T05:10:35.292Z,23.82
2022-07-26T05:13:05.056Z,23.31
2022-07-26T05:15:35.245Z,23.41
2022-07-26T05:18:10.310Z,23.50
2022-07-26T05:20:38.488Z,23.75
2022-07-26T05:23:06.394Z,23.91
2022-07-26T05:25:33.583Z,23.92
2022-07-26T05:28:01.616Z,23.86
2022-07-26T05:30:28.751Z,23.74
2022-07-26T05:32:55.831Z,23.86
2022-07-26T05:35:22.888Z,23.73
2022-07-26T05:37:50.031Z,23.72
2022-07-26T05:40:17.130Z,23.66
2022-07-26T05:42:44.216Z,23.71
2022-07-26T05:45:11.516Z,23.86
2022-07-26T05:47:38.559Z,23.69
2022-07-26T05:50:10.078Z,23.49
2022-07-26T05:52:37.262Z,23.72
2022-07-26T05:55:04.888Z,23.63
2022-07-26T05:57:31.834Z,23.61
2022-07-26T05:59:58.880Z,23.65
2022-07-26T06:02:25.938Z,23.86
2022-07-26T06:04:53.045Z,23.81
2022-07-26T06:07:19.973Z,23.84
2022-07-26T06:09:47.044Z,23.80
2022-07-26T06:12:14.180Z,23.61
2022-07-26T06:14:41.284Z,23.54
2022-07-26T06:17:08.445Z,23.00
2022-07-26T06:19:35.593Z,22.60
2022-07-26T06:22:03.339Z,22.97
2022-07-26T06:24:30.424Z,23.18
2022-07-26T06:27:04.662Z,22.82
2022-07-26T06:29:32.995Z,22.55
2022-07-26T06:32:00.431Z,22.75
2022-07-26T06:34:27.484Z,22.80
2022-07-26T06:36:54.773Z,22.68
2022-07-26T06:39:21.763Z,22.86
2022-07-26T06:41:49.085Z,22.51
2022-07-26T06:44:16.410Z,22.13
2022-07-26T06:46:43.476Z,22.33
2022-07-26T06:49:10.500Z,22.02
2022-07-26T06:51:38.060Z,21.99
2022-07-26T06:54:05.805Z,22.07
2022-07-26T06:56:33.076Z,21.87
2022-07-26T06:59:00.123Z,21.94
2022-07-26T07:01:58.232Z,21.91
2022-07-26T07:04:14.035Z,21.73
2022-07-26T07:06:41.025Z,21.72
2022-07-26T07:09:09.065Z,21.70
2022-07-26T07:11:36.901Z,21.64
2022-07-26T07:14:05.385Z,21.71
2022-07-26T07:16:32.573Z,21.73
2022-07-26T07:18:59.563Z,21.61
2022-07-26T07:21:27.366Z,22.04
2022-07-26T07:23:54.397Z,22.34
2022-07-26T07:26:21.570Z,22.19
2022-07-26T07:28:48.747Z,22.30
2022-07-26T07:31:15.935Z,22.53
2022-07-26T07:33:52.809Z,22.38
2022-07-26T07:36:21.592Z,22.47
2022-07-26T07:38:50.276Z,22.61
2022-07-26T07:41:19.054Z,22.59
2022-07-26T07:43:46.296Z,22.68
2022-07-26T07:46:13.795Z,22.95
2022-07-26T07:48:52.747Z,23.03
2022-07-26T07:51:20.308Z,23.03
2022-07-26T07:53:56.291Z,23.21
2022-07-26T07:56:24.810Z,23.39
2022-07-26T07:58:52.438Z,23.55
2022-07-26T08:01:19.737Z,23.89
2022-07-26T08:03:50.390Z,24.09
2022-07-26T08:06:18.211Z,24.10
2022-07-26T08:08:48.629Z,24.39
2022-07-26T08:11:19.101Z,24.95
2022-07-26T08:13:49.430Z,24.68
2022-07-26T08:16:19.067Z,25.20
2022-07-26T08:18:56.896Z,25.30
2022-07-26T08:21:46.891Z,25.87
2022-07-26T08:24:17.110Z,25.52
2022-07-26T08:26:44.479Z,26.10
2022-07-26T08:29:11.962Z,25.99
2022-07-26T08:31:39.470Z,26.19
2022-07-26T08:34:06.629Z,26.29
2022-07-26T08:36:33.645Z,26.76
2022-07-26T08:39:01.655Z,27.10
2022-07-26T08:41:29.205Z,27.20
2022-07-26T08:44:04.253Z,27.14
2022-07-26T08:46:34.399Z,26.93
2022-07-26T08:49:01.453Z,26.49
2022-07-26T08:51:28.557Z,26.89
2022-07-26T08:54:06.053Z,27.01
2022-07-26T08:56:41.797Z,26.72
2022-07-26T08:59:20.669Z,26.62
2022-07-26T09:01:58.041Z,26.42
2022-07-26T09:04:46.426Z,26.56
2022-07-26T09:07:19.444Z,26.66
2022-07-26T09:10:05.208Z,26.56
2022-07-26T09:12:36.712Z,26.28
2022-07-26T09:15:08.484Z,26.81
2022-07-26T09:17:43.152Z,26.62
2022-07-26T09:20:18.516Z,26.70
2022-07-26T09:23:00.792Z,27.67
2022-07-26T09:25:31.182Z,27.63
2022-07-26T09:28:00.116Z,27.36
2022-07-26T09:30:30.332Z,27.86
2022-07-26T09:33:07.030Z,27.65
2022-07-26T09:35:51.307Z,27.71
2022-07-26T09:38:19.355Z,26.99
2022-07-26T09:40:50.492Z,26.89
2022-07-26T09:43:19.898Z,26.80
2022-07-26T09:46:07.528Z,26.51
2022-07-26T09:49:09.540Z,26.31
2022-07-26T09:51:39.939Z,26.97
2022-07-26T09:54:09.468Z,27.20
2022-07-26T09:56:51.494Z,26.57
2022-07-26T09:59:22.163Z,28.40
2022-07-26T10:01:53.952Z,29.23
2022-07-26T10:04:22.833Z,29.13
2022-07-26T10:06:50.513Z,29.14
2022-07-26T10:09:25.033Z,28.92
2022-07-26T10:12:08.909Z,29.37
2022-07-26T10:14:41.362Z,29.38
2022-07-26T10:17:29.266Z,29.65
2022-07-26T10:20:17.105Z,29.44
2022-07-26T10:22:50.620Z,29.85
2022-07-26T10:25:17.682Z,28.89
2022-07-26T10:27:54.485Z,28.58
2022-07-26T10:30:28.850Z,28.05
2022-07-26T10:33:09.638Z,28.28
2022-07-26T10:35:42.411Z,28.10
2022-07-26T10:38:26.074Z,28.07
2022-07-26T10:41:02.574Z,28.66
2022-07-26T10:43:40.697Z,28.71
2022-07-26T10:46:20.702Z,29.55
2022-07-26T10:49:08.978Z,29.24
2022-07-26T10:51:41.226Z,29.92
2022-07-26T10:54:12.173Z,29.24
2022-07-26T10:56:40.665Z,29.71
2022-07-26T10:59:08.323Z,29.61
2022-07-26T11:01:40.438Z,29.23
2022-07-26T11:04:21.532Z,28.92
2022-07-26T11:06:49.426Z,28.48
2022-07-26T11:09:18.908Z,27.99
2022-07-26T11:11:48.537Z,27.48
2022-07-26T11:14:18.071Z,27.53
2022-07-26T11:16:49.987Z,27.35
2022-07-26T11:19:25.922Z,27.63
2022-07-26T11:21:59.072Z,27.83
2022-07-26T11:24:27.154Z,27.80
2022-07-26T11:26:54.545Z,28.07
2022-07-26T11:29:38.779Z,27.74
2022-07-26T11:32:23.630Z,27.44
2022-07-26T11:35:02.969Z,27.09
2022-07-26T11:37:30.195Z,27.43
2022-07-26T11:39:57.635Z,27.32
2022-07-26T11:42:25.032Z,26.85
2022-07-26T11:44:54.067Z,26.51
2022-07-26T11:47:24.205Z,26.57
2022-07-26T11:52:40.996Z,26.72
2022-07-26T11:55:09.265Z,26.68
2022-07-26T11:57:36.425Z,26.95
2022-07-26T12:00:05.526Z,27.07
2022-07-26T12:02:32.587Z,27.27
2022-07-26T12:05:19.894Z,27.50
2022-07-26T12:08:05.162Z,27.28
2022-07-26T12:10:32.818Z,27.23
2022-07-26T12:13:16.261Z,27.42
2022-07-26T12:15:50.273Z,27.21
2022-07-26T12:18:31.511Z,27.33
2022-07-26T12:21:07.556Z,27.38
2022-07-26T12:23:48.641Z,27.00
2022-07-26T12:26:24.634Z,26.76
2022-07-26T12:28:52.277Z,26.83
2022-07-26T12:31:24.147Z,27.15
2022-07-26T12:33:51.253Z,27.25
2022-07-26T12:36:27.143Z,27.64
2022-07-26T12:38:59.510Z,27.83
2022-07-26T12:41:38.534Z,27.84
2022-07-26T12:44:08.449Z,28.14
2022-07-26T12:46:36.652Z,28.60
2022-07-26T12:49:05.115Z,28.69
2022-07-26T12:51:32.617Z,27.72
2022-07-26T12:53:59.823Z,28.68
2022-07-26T12:56:26.907Z,28.84
2022-07-26T12:58:54.386Z,28.59
2022-07-26T13:01:21.814Z,28.15
2022-07-26T13:03:49.072Z,28.34
2022-07-26T13:06:16.101Z,27.93
2022-07-26T13:08:43.120Z,28.01
2022-07-26T13:11:10.722Z,27.91
2022-07-26T13:13:37.966Z,27.59
2022-07-26T13:16:11.152Z,27.65
2022-07-26T13:18:39.010Z,27.66
2022-07-26T13:21:06.295Z,27.51
2022-07-26T13:23:35.026Z,27.85
2022-07-26T13:26:04.333Z,28.07
2022-07-26T13:28:36.244Z,28.67
2022-07-26T13:31:03.368Z,28.60
2022-07-26T13:33:30.504Z,29.26
2022-07-26T13:35:58.634Z,29.68
2022-07-26T13:38:25.683Z,29.55
2022-07-26T13:40:53.358Z,29.48
2022-07-26T13:43:20.334Z,29.96
2022-07-26T13:45:47.525Z,29.91
2022-07-26T13:48:17.478Z,29.21
2022-07-26T13:50:44.569Z,29.18
2022-07-26T13:53:11.639Z,29.85
2022-07-26T13:55:38.640Z,29.72
2022-07-26T13:58:09.985Z,29.12
2022-07-26T14:00:38.080Z,29.62
2022-07-26T14:03:05.275Z,29.94
2022-07-26T14:05:32.497Z,29.62
2022-07-26T14:07:59.798Z,29.33
2022-07-26T14:10:27.267Z,29.29
2022-07-26T14:12:56.997Z,29.07
2022-07-26T14:15:27.614Z,29.14
2022-07-26T14:17:55.491Z,28.55
2022-07-26T14:20:22.841Z,28.57
2022-07-26T14:22:53.906Z,28.35
2022-07-26T14:25:24.471Z,28.65
2022-07-26T14:27:53.424Z,28.80
2022-07-26T14:30:22.262Z,29.13
2022-07-26T14:32:54.157Z,29.49
2022-07-26T14:35:21.838Z,28.95
2022-07-26T14:37:49.116Z,28.49
2022-07-26T14:40:19.308Z,28.35
2022-07-26T14:42:47.358Z,28.33
2022-07-26T14:45:16.001Z,28.50
2022-07-26T14:47:44.076Z,28.39
2022-07-26T14:50:14.272Z,28.61
2022-07-26T14:52:47.511Z,28.62
2022-07-26T14:55:22.982Z,29.05
2022-07-26T14:57:55.928Z,29.47
2022-07-26T15:00:23.167Z,29.37
2022-07-26T15:02:50.863Z,29.86
2022-07-26T15:05:18.585Z,30.07
2022-07-26T15:07:48.366Z,29.57
2022-07-26T15:10:16.308Z,29.51
2022-07-26T15:12:46.846Z,29.48
2022-07-26T15:15:13.901Z,29.24
2022-07-26T15:17:41.731Z,29.21
2022-07-26T15:20:15.217Z,29.12
2022-07-26T15:22:42.740Z,29.25
2022-07-26T15:25:09.969Z,29.13
2022-07-26T15:27:37.099Z,29.12
2022-07-26T15:30:10.232Z,29.02
2022-07-26T15:32:44.739Z,28.38
2022-07-26T15:35:14.880Z,28.24
2022-07-26T15:37:48.078Z,28.52
2022-07-26T15:40:15.128Z,28.33
2022-07-26T15:42:45.749Z,28.58
2022-07-26T15:45:13.581Z,28.27
2022-07-26T15:47:54.928Z,28.10
2022-07-26T15:50:25.590Z,28.10
2022-07-26T15:52:53.690Z,28.27
2022-07-26T15:55:26.501Z,28.78
2022-07-26T15:57:53.719Z,29.24
2022-07-26T16:00:22.963Z,28.95
2022-07-26T16:02:50.936Z,29.21
2022-07-26T16:05:18.180Z,29.09
2022-07-26T16:07:46.155Z,29.15
2022-07-26T16:10:14.949Z,28.76
2022-07-26T16:12:43.284Z,28.77
2022-07-26T16:15:11.997Z,28.92
2022-07-26T16:17:39.389Z,29.04
2022-07-26T16:20:08.365Z,28.84
2022-07-26T16:22:35.519Z,28.61
2022-07-26T16:25:02.739Z,28.48
2022-07-26T16:27:29.855Z,28.21
2022-07-26T16:29:57.095Z,27.84
2022-07-26T16:32:26.366Z,27.59
2022-07-26T16:34:53.415Z,27.43
2022-07-26T16:37:23.691Z,27.49
2022-07-26T16:39:50.753Z,27.53
2022-07-26T16:42:17.994Z,27.44
2022-07-26T16:44:45.108Z,27.55
2022-07-26T16:47:12.485Z,27.27
2022-07-26T16:49:39.907Z,27.44
2022-07-26T16:52:07.677Z,27.33
2022-07-26T16:54:36.838Z,26.99
2022-07-26T16:57:03.974Z,27.13
2022-07-26T16:59:30.966Z,27.20
2022-07-26T17:02:01.586Z,27.15
2022-07-26T17:04:30.036Z,27.15
2022-07-26T17:07:23.254Z,26.96
2022-07-26T17:09:43.936Z,27.17
2022-07-26T17:12:10.927Z,27.13
2022-07-26T17:14:37.937Z,26.94
2022-07-26T17:17:05.003Z,26.70
2022-07-26T17:19:32.006Z,26.36
2022-07-26T17:21:59.077Z,25.88
2022-07-26T17:24:26.105Z,25.68
2022-07-26T17:26:53.509Z,25.35
2022-07-26T17:29:20.577Z,25.18
2022-07-26T17:31:47.608Z,25.18
2022-07-26T17:34:14.576Z,25.00
2022-07-26T17:36:43.020Z,25.00
2022-07-26T17:39:14.968Z,24.93
2022-07-26T17:41:47.443Z,25.15
2022-07-26T17:44:15.079Z,24.94
2022-07-26T17:46:42.599Z,24.96
2022-07-26T17:49:10.100Z,24.94
2022-07-26T17:51:37.770Z,24.89
2022-07-26T17:54:05.211Z,24.74
2022-07-26T17:56:32.459Z,24.63
2022-07-26T17:58:59.556Z,24.60
2022-07-26T18:01:27.023Z,24.53
2022-07-26T18:03:54.301Z,24.33
2022-07-26T18:06:21.467Z,24.01
2022-07-26T18:08:48.491Z,24.11
2022-07-26T18:11:15.483Z,24.07
2022-07-26T18:13:42.497Z,23.70
2022-07-26T18:16:09.459Z,23.51
2022-07-26T18:18:36.522Z,23.48
2022-07-26T18:21:04.655Z,23.60
2022-07-26T18:23:31.721Z,23.61
2022-07-26T18:25:59.171Z,23.70
2022-07-26T18:28:26.298Z,23.53
2022-07-26T18:30:53.533Z,23.61
2022-07-26T18:33:20.592Z,23.67
2022-07-26T18:35:47.670Z,23.62
2022-07-26T18:38:15.265Z,23.45
2022-07-26T18:40:42.318Z,23.54
2022-07-26T18:43:09.865Z,23.42
2022-07-26T18:45:37.000Z,23.32
2022-07-26T18:48:04.676Z,23.09
2022-07-26T18:50:33.898Z,23.19
2022-07-26T18:53:02.223Z,23.12
2022-07-26T18:55:29.224Z,23.13
2022-07-26T18:57:56.353Z,23.24
2022-07-26T19:00:25.105Z,23.23
2022-07-26T19:02:54.089Z,23.27
2022-07-26T19:05:22.865Z,23.05
2022-07-26T19:07:50.713Z,22.94
2022-07-26T19:10:18.390Z,22.96
2022-07-26T19:12:45.520Z,23.09
2022-07-26T19:15:16.591Z,22.71
2022-07-26T19:17:44.610Z,22.85
2022-07-26T19:20:14.987Z,22.75
2022-07-26T19:22:44.390Z,22.97
2022-07-26T19:25:16.194Z,22.93
2022-07-26T19:27:43.822Z,22.89
2022-07-26T19:30:12.199Z,22.92
2022-07-26T19:32:41.072Z,22.87
2022-07-26T19:35:09.133Z,22.82
2022-07-26T19:37:45.790Z,22.87
2022-07-26T19:40:13.807Z,22.85
2022-07-26T19:42:42.148Z,22.74
2022-07-26T19:45:09.828Z,22.64
2022-07-26T19:47:37.431Z,22.52
2022-07-26T19:50:08.047Z,22.76
2022-07-26T19:52:35.542Z,22.76
2022-07-26T19:55:02.602Z,22.68
2022-07-26T19:57:29.783Z,22.85
2022-07-26T19:59:56.931Z,22.57
2022-07-26T20:02:23.950Z,22.54
2022-07-26T20:04:52.051Z,22.53
2022-07-26T20:07:19.787Z,22.45
2022-07-26T20:09:49.364Z,22.42
2022-07-26T20:12:17.449Z,22.28
2022-07-26T20:14:45.295Z,22.12
2022-07-26T20:17:13.165Z,22.24
2022-07-26T20:19:40.940Z,22.30
2022-07-26T20:22:08.118Z,22.08
2022-07-26T20:24:35.451Z,21.77
2022-07-26T20:27:02.436Z,21.92
2022-07-26T20:29:29.455Z,21.80
2022-07-26T20:31:56.459Z,21.76
2022-07-26T20:34:23.415Z,21.80
2022-07-26T20:36:50.446Z,21.90
2022-07-26T20:39:17.480Z,21.86
2022-07-26T20:41:44.544Z,21.69
2022-07-26T20:44:12.657Z,21.70
2022-07-26T20:46:41.895Z,21.58
2022-07-26T20:49:10.442Z,21.64
2022-07-26T20:51:38.755Z,21.58
2022-07-26T20:54:06.619Z,21.52
2022-07-26T20:56:34.001Z,21.53
2022-07-26T20:59:02.315Z,21.46
2022-07-26T21:01:31.424Z,21.45
2022-07-26T21:03:59.515Z,21.26
2022-07-26T21:06:27.397Z,21.22
2022-07-26T21:08:57.766Z,21.12
2022-07-26T21:11:25.065Z,21.08
2022-07-26T21:13:53.096Z,20.88
2022-07-26T21:16:20.257Z,21.03
2022-07-26T21:18:52.400Z,21.13
2022-07-26T21:21:21.797Z,21.05
2022-07-26T21:23:49.413Z,21.07
2022-07-26T21:26:16.400Z,20.96
2022-07-26T21:28:43.474Z,20.93
2022-07-26T21:31:10.541Z,20.91
2022-07-26T21:33:37.569Z,20.87
2022-07-26T21:36:04.763Z,20.94
2022-07-26T21:38:33.809Z,20.70
2022-07-26T21:41:00.846Z,20.72
2022-07-26T21:43:27.861Z,20.66
2022-07-26T21:49:11.011Z,20.62
2022-07-26T21:51:38.149Z,20.36
2022-07-26T21:54:05.175Z,20.39
2022-07-26T21:56:32.200Z,20.38
2022-07-26T21:59:00.125Z,20.19
2022-07-26T22:01:27.246Z,19.90
2022-07-26T22:03:54.292Z,20.05
2022-07-26T22:06:21.502Z,19.72
2022-07-26T22:08:48.712Z,19.78
2022-07-26T22:11:15.779Z,19.88
2022-07-26T22:13:43.452Z,19.86
2022-07-26T22:16:11.030Z,19.77
2022-07-26T22:18:38.157Z,19.69
2022-07-26T22:21:05.224Z,19.55
2022-07-26T22:23:32.708Z,19.50
2022-07-26T22:26:04.484Z,19.43
2022-07-26T22:28:33.560Z,19.39
2022-07-26T22:31:01.298Z,19.34
2022-07-26T22:33:28.283Z,19.27
2022-07-26T22:35:55.768Z,19.16
2022-07-26T22:38:25.909Z,19.19
2022-07-26T22:40:53.395Z,19.10
2022-07-26T22:43:20.414Z,18.87
2022-07-26T22:45:47.537Z,18.51
2022-07-26T22:48:14.583Z,18.71
2022-07-26T22:50:41.720Z,18.69
2022-07-26T22:53:08.803Z,18.53
2022-07-26T22:55:35.897Z,18.46
2022-07-26T22:58:03.081Z,18.50
2022-07-26T23:00:30.628Z,18.50
2022-07-26T23:02:57.607Z,18.44
2022-07-26T23:05:27.615Z,18.49
2022-07-26T23:08:36.647Z,18.53
2022-07-26T23:10:58.819Z,18.47
2022-07-26T23:13:26.071Z,18.38
2022-07-26T23:15:58.115Z,18.14
2022-07-26T23:18:41.910Z,18.24
2022-07-26T23:21:08.865Z,18.23
2022-07-26T23:23:35.924Z,18.01
2022-07-26T23:26:03.024Z,18.15
2022-07-26T23:28:37.093Z,18.08
2022-07-26T23:31:12.663Z,17.80
2022-07-26T23:33:52.633Z,17.81
2022-07-26T23:36:26.692Z,17.88
2022-07-26T23:38:58.753Z,17.82
2022-07-26T23:41:27.345Z,17.72
2022-07-26T23:43:55.542Z,17.76
2022-07-26T23:46:23.834Z,17.57
2022-07-26T23:48:51.981Z,17.78
2022-07-26T23:51:19.708Z,17.58
2022-07-26T23:53:56.063Z,17.60
2022-07-26T23:56:23.573Z,17.68
2022-07-26T23:58:51.119Z,17.59
